sensor_id;sensor_type;location;lat;lon;timestamp;P1;durP1;ratioP1;P2;durP2;ratioP2
73909;SDS011;62245;48.070;7.874;2024-01-15T00:00:07;24.33;;;8.30;;
73909;SDS011;62245;48.070;7.874;2024-01-15T00:02:33;25.63;;;8.15;;
73909;SDS011;62245;48.070;7.874;2024-01-15T00:04:58;29.67;;;8.50;;
73909;SDS011;62245;48.070;7.874;2024-01-15T00:07:24;24.23;;;7.43;;
73909;SDS011;62245;48.070;7.874;2024-01-15T00:09:49;24.63;;;8.30;;
73909;SDS011;62245;48.070;7.874;2024-01-15T00:12:14;29.33;;;10.13;;
73909;SDS011;62245;48.070;7.874;2024-01-15T00:14:40;25.33;;;7.67;;
73909;SDS011;62245;48.070;7.874;2024-01-15T00:17:05;28.00;;;9.65;;
73909;SDS011;62245;48.070;7.874;2024-01-15T00:19:30;27.73;;;9.50;;
73909;SDS011;62245;48.070;7.874;2024-01-15T00:21:57;26.10;;;9.52;;
73909;SDS011;62245;48.070;7.874;2024-01-15T00:24:22;30.27;;;8.98;;
73909;SDS011;62245;48.070;7.874;2024-01-15T00:26:48;25.17;;;8.87;;
73909;SDS011;62245;48.070;7.874;2024-01-15T00:29:13;26.70;;;8.97;;
73909;SDS011;62245;48.070;7.874;2024-01-15T00:31:38;23.30;;;8.93;;
73909;SDS011;62245;48.070;7.874;2024-01-15T00:34:03;28.70;;;9.27;;
73909;SDS011;62245;48.070;7.874;2024-01-15T00:36:29;26.77;;;9.63;;
73909;SDS011;62245;48.070;7.874;2024-01-15T00:38:54;28.13;;;8.57;;
73909;SDS011;62245;48.070;7.874;2024-01-15T00:41:19;27.60;;;8.18;;
73909;SDS011;62245;48.070;7.874;2024-01-15T00:43:45;27.23;;;9.70;;
73909;SDS011;62245;48.070;7.874;2024-01-15T00:46:11;27.92;;;8.63;;
73909;SDS011;62245;48.070;7.874;2024-01-15T00:48:36;26.80;;;8.95;;
73909;SDS011;62245;48.070;7.874;2024-01-15T00:51:02;23.40;;;8.13;;
73909;SDS011;62245;48.070;7.874;2024-01-15T00:53:27;22.88;;;7.85;;
73909;SDS011;62245;48.070;7.874;2024-01-15T00:55:53;22.53;;;7.47;;
73909;SDS011;62245;48.070;7.874;2024-01-15T00:58:18;21.70;;;8.10;;
73909;SDS011;62245;48.070;7.874;2024-01-15T04:01:26;34.83;;;11.55;;
73909;SDS011;62245;48.070;7.874;2024-01-15T04:03:51;35.33;;;11.43;;
73909;SDS011;62245;48.070;7.874;2024-01-15T04:06:16;40.20;;;13.60;;
73909;SDS011;62245;48.070;7.874;2024-01-15T04:08:41;35.83;;;12.40;;
73909;SDS011;62245;48.070;7.874;2024-01-15T04:11:07;31.87;;;11.40;;
73909;SDS011;62245;48.070;7.874;2024-01-15T04:13:32;31.53;;;11.20;;
73909;SDS011;62245;48.070;7.874;2024-01-15T04:15:58;34.72;;;10.75;;
73909;SDS011;62245;48.070;7.874;2024-01-15T04:18:23;32.73;;;12.67;;
73909;SDS011;62245;48.070;7.874;2024-01-15T04:20:48;31.57;;;10.93;;
73909;SDS011;62245;48.070;7.874;2024-01-15T04:23:13;29.20;;;10.57;;
73909;SDS011;62245;48.070;7.874;2024-01-15T04:25:39;34.00;;;11.10;;
73909;SDS011;62245;48.070;7.874;2024-01-15T04:28:07;33.17;;;11.40;;
73909;SDS011;62245;48.070;7.874;2024-01-15T04:30:33;35.38;;;12.35;;
73909;SDS011;62245;48.070;7.874;2024-01-15T04:32:58;31.27;;;10.93;;
73909;SDS011;62245;48.070;7.874;2024-01-15T04:35:23;36.67;;;12.23;;
73909;SDS011;62245;48.070;7.874;2024-01-15T04:37:49;30.50;;;10.87;;
73909;SDS011;62245;48.070;7.874;2024-01-15T04:40:14;37.10;;;12.83;;
73909;SDS011;62245;48.070;7.874;2024-01-15T04:42:39;34.08;;;12.40;;
73909;SDS011;62245;48.070;7.874;2024-01-15T04:45:05;31.07;;;10.50;;
73909;SDS011;62245;48.070;7.874;2024-01-15T04:47:30;35.13;;;12.10;;
73909;SDS011;62245;48.070;7.874;2024-01-15T04:49:55;30.77;;;12.53;;
73909;SDS011;62245;48.070;7.874;2024-01-15T04:52:21;35.10;;;12.85;;
73909;SDS011;62245;48.070;7.874;2024-01-15T04:54:46;34.17;;;13.07;;
73909;SDS011;62245;48.070;7.874;2024-01-15T04:57:11;39.28;;;13.23;;
73909;SDS011;62245;48.070;7.874;2024-01-15T04:59:37;36.78;;;12.77;;
73909;SDS011;62245;48.070;7.874;2024-01-15T05:02:02;38.00;;;13.40;;
73909;SDS011;62245;48.070;7.874;2024-01-15T05:04:27;36.95;;;12.98;;
73909;SDS011;62245;48.070;7.874;2024-01-15T05:06:53;36.10;;;13.00;;
73909;SDS011;62245;48.070;7.874;2024-01-15T05:09:18;42.25;;;14.43;;
73909;SDS011;62245;48.070;7.874;2024-01-15T05:11:44;37.53;;;13.80;;
73909;SDS011;62245;48.070;7.874;2024-01-15T05:14:09;32.07;;;11.60;;
73909;SDS011;62245;48.070;7.874;2024-01-15T05:16:35;33.80;;;11.73;;
73909;SDS011;62245;48.070;7.874;2024-01-15T05:19:02;31.40;;;10.93;;
73909;SDS011;62245;48.070;7.874;2024-01-15T05:21:28;30.70;;;10.97;;
73909;SDS011;62245;48.070;7.874;2024-01-15T05:23:53;34.00;;;11.97;;
73909;SDS011;62245;48.070;7.874;2024-01-15T05:26:18;36.83;;;11.30;;
73909;SDS011;62245;48.070;7.874;2024-01-15T05:28:43;35.87;;;11.63;;
73909;SDS011;62245;48.070;7.874;2024-01-15T05:31:09;35.33;;;11.43;;
73909;SDS011;62245;48.070;7.874;2024-01-15T05:33:34;29.80;;;10.50;;
73909;SDS011;62245;48.070;7.874;2024-01-15T05:36:00;32.35;;;11.73;;
73909;SDS011;62245;48.070;7.874;2024-01-15T05:38:25;39.75;;;11.93;;
73909;SDS011;62245;48.070;7.874;2024-01-15T05:40:50;32.63;;;11.82;;
73909;SDS011;62245;48.070;7.874;2024-01-15T05:43:16;31.53;;;11.30;;
73909;SDS011;62245;48.070;7.874;2024-01-15T05:45:42;31.13;;;10.50;;
73909;SDS011;62245;48.070;7.874;2024-01-15T05:48:08;28.35;;;10.10;;
73909;SDS011;62245;48.070;7.874;2024-01-15T05:50:33;34.13;;;11.87;;
73909;SDS011;62245;48.070;7.874;2024-01-15T05:52:59;30.40;;;11.13;;
73909;SDS011;62245;48.070;7.874;2024-01-15T05:55:24;33.27;;;11.03;;
73909;SDS011;62245;48.070;7.874;2024-01-15T05:57:49;32.00;;;11.33;;
73909;SDS011;62245;48.070;7.874;2024-01-15T06:00:15;33.80;;;12.53;;
73909;SDS011;62245;48.070;7.874;2024-01-15T06:02:40;31.27;;;11.43;;
73909;SDS011;62245;48.070;7.874;2024-01-15T06:05:06;36.37;;;11.83;;
73909;SDS011;62245;48.070;7.874;2024-01-15T06:07:33;36.92;;;12.82;;
73909;SDS011;62245;48.070;7.874;2024-01-15T06:09:59;32.60;;;11.07;;
73909;SDS011;62245;48.070;7.874;2024-01-15T06:12:25;32.85;;;12.27;;
73909;SDS011;62245;48.070;7.874;2024-01-15T06:14:50;32.60;;;11.10;;
73909;SDS011;62245;48.070;7.874;2024-01-15T06:17:15;34.13;;;11.30;;
73909;SDS011;62245;48.070;7.874;2024-01-15T06:19:41;32.83;;;10.67;;
73909;SDS011;62245;48.070;7.874;2024-01-15T06:22:06;34.13;;;10.90;;
73909;SDS011;62245;48.070;7.874;2024-01-15T06:24:31;29.07;;;9.93;;
73909;SDS011;62245;48.070;7.874;2024-01-15T06:26:57;34.58;;;11.60;;
73909;SDS011;62245;48.070;7.874;2024-01-15T06:29:25;42.63;;;14.20;;
73909;SDS011;62245;48.070;7.874;2024-01-15T06:31:50;54.20;;;18.95;;
73909;SDS011;62245;48.070;7.874;2024-01-15T06:34:16;48.50;;;17.23;;
73909;SDS011;62245;48.070;7.874;2024-01-15T06:36:41;45.43;;;14.13;;
73909;SDS011;62245;48.070;7.874;2024-01-15T06:39:06;40.75;;;14.48;;
73909;SDS011;62245;48.070;7.874;2024-01-15T06:41:32;34.95;;;11.52;;
73909;SDS011;62245;48.070;7.874;2024-01-15T06:43:57;36.53;;;10.93;;
73909;SDS011;62245;48.070;7.874;2024-01-15T06:46:23;28.20;;;10.10;;
73909;SDS011;62245;48.070;7.874;2024-01-15T06:48:48;30.95;;;10.25;;
73909;SDS011;62245;48.070;7.874;2024-01-15T06:51:15;33.63;;;10.55;;
73909;SDS011;62245;48.070;7.874;2024-01-15T06:53:41;33.25;;;11.73;;
73909;SDS011;62245;48.070;7.874;2024-01-15T06:56:06;32.50;;;11.00;;
73909;SDS011;62245;48.070;7.874;2024-01-15T06:58:31;32.50;;;11.33;;
73909;SDS011;62245;48.070;7.874;2024-01-15T07:00:56;38.10;;;12.67;;
73909;SDS011;62245;48.070;7.874;2024-01-15T07:03:22;35.90;;;12.50;;
73909;SDS011;62245;48.070;7.874;2024-01-15T07:05:48;31.70;;;12.73;;
73909;SDS011;62245;48.070;7.874;2024-01-15T07:08:13;35.30;;;13.57;;
73909;SDS011;62245;48.070;7.874;2024-01-15T07:10:38;36.60;;;13.57;;
73909;SDS011;62245;48.070;7.874;2024-01-15T07:13:04;36.87;;;14.87;;
73909;SDS011;62245;48.070;7.874;2024-01-15T07:15:30;31.48;;;13.52;;
73909;SDS011;62245;48.070;7.874;2024-01-15T07:17:55;32.13;;;13.07;;
73909;SDS011;62245;48.070;7.874;2024-01-15T07:20:21;30.23;;;12.10;;
73909;SDS011;62245;48.070;7.874;2024-01-15T07:22:46;35.13;;;12.95;;
73909;SDS011;62245;48.070;7.874;2024-01-15T07:25:12;27.23;;;11.13;;
73909;SDS011;62245;48.070;7.874;2024-01-15T07:27:37;30.42;;;10.73;;
73909;SDS011;62245;48.070;7.874;2024-01-15T07:30:03;25.08;;;9.63;;
73909;SDS011;62245;48.070;7.874;2024-01-15T07:32:30;25.08;;;9.25;;
73909;SDS011;62245;48.070;7.874;2024-01-15T07:34:56;25.80;;;9.38;;
73909;SDS011;62245;48.070;7.874;2024-01-15T07:37:22;26.60;;;9.85;;
73909;SDS011;62245;48.070;7.874;2024-01-15T07:39:48;23.80;;;8.95;;
73909;SDS011;62245;48.070;7.874;2024-01-15T07:42:13;24.98;;;9.13;;
73909;SDS011;62245;48.070;7.874;2024-01-15T07:44:39;24.42;;;10.43;;
73909;SDS011;62245;48.070;7.874;2024-01-15T07:47:04;27.53;;;10.87;;
73909;SDS011;62245;48.070;7.874;2024-01-15T07:49:30;44.28;;;16.73;;
73909;SDS011;62245;48.070;7.874;2024-01-15T07:51:55;39.33;;;14.73;;
73909;SDS011;62245;48.070;7.874;2024-01-15T07:54:20;30.17;;;12.20;;
73909;SDS011;62245;48.070;7.874;2024-01-15T07:56:52;36.90;;;14.40;;
73909;SDS011;62245;48.070;7.874;2024-01-15T07:59:26;32.35;;;13.15;;
73909;SDS011;62245;48.070;7.874;2024-01-15T08:01:52;38.65;;;14.60;;
73909;SDS011;62245;48.070;7.874;2024-01-15T08:04:18;44.92;;;15.60;;
73909;SDS011;62245;48.070;7.874;2024-01-15T08:06:44;35.75;;;13.75;;
73909;SDS011;62245;48.070;7.874;2024-01-15T08:09:10;36.30;;;13.30;;
73909;SDS011;62245;48.070;7.874;2024-01-15T08:11:36;33.45;;;12.35;;
73909;SDS011;62245;48.070;7.874;2024-01-15T08:14:03;31.63;;;11.00;;
73909;SDS011;62245;48.070;7.874;2024-01-15T08:16:29;30.73;;;11.17;;
73909;SDS011;62245;48.070;7.874;2024-01-15T08:18:54;30.37;;;11.10;;
73909;SDS011;62245;48.070;7.874;2024-01-15T08:21:19;30.40;;;10.73;;
73909;SDS011;62245;48.070;7.874;2024-01-15T08:23:45;34.37;;;13.50;;
73909;SDS011;62245;48.070;7.874;2024-01-15T08:26:10;40.10;;;14.13;;
73909;SDS011;62245;48.070;7.874;2024-01-15T08:28:36;32.50;;;12.85;;
73909;SDS011;62245;48.070;7.874;2024-01-15T08:31:01;30.63;;;12.07;;
73909;SDS011;62245;48.070;7.874;2024-01-15T08:33:27;33.78;;;12.80;;
73909;SDS011;62245;48.070;7.874;2024-01-15T08:35:53;31.85;;;11.77;;
73909;SDS011;62245;48.070;7.874;2024-01-15T08:38:18;24.90;;;9.10;;
73909;SDS011;62245;48.070;7.874;2024-01-15T08:40:44;23.58;;;8.27;;
73909;SDS011;62245;48.070;7.874;2024-01-15T08:43:09;23.80;;;8.63;;
73909;SDS011;62245;48.070;7.874;2024-01-15T08:45:35;20.87;;;7.03;;
73909;SDS011;62245;48.070;7.874;2024-01-15T08:48:00;18.37;;;7.27;;
73909;SDS011;62245;48.070;7.874;2024-01-15T08:50:26;17.08;;;5.40;;
73909;SDS011;62245;48.070;7.874;2024-01-15T08:52:51;11.68;;;4.38;;
73909;SDS011;62245;48.070;7.874;2024-01-15T08:55:17;13.25;;;4.22;;
73909;SDS011;62245;48.070;7.874;2024-01-15T08:57:42;10.37;;;3.70;;
73909;SDS011;62245;48.070;7.874;2024-01-15T09:00:08;13.88;;;4.38;;
73909;SDS011;62245;48.070;7.874;2024-01-15T09:02:34;11.77;;;3.65;;
73909;SDS011;62245;48.070;7.874;2024-01-15T09:05:00;10.70;;;3.20;;
73909;SDS011;62245;48.070;7.874;2024-01-15T09:07:26;8.38;;;3.25;;
73909;SDS011;62245;48.070;7.874;2024-01-15T09:09:52;9.68;;;3.38;;
73909;SDS011;62245;48.070;7.874;2024-01-15T09:12:17;9.50;;;3.38;;
73909;SDS011;62245;48.070;7.874;2024-01-15T09:14:45;9.35;;;3.17;;
73909;SDS011;62245;48.070;7.874;2024-01-15T09:17:11;8.70;;;3.22;;
73909;SDS011;62245;48.070;7.874;2024-01-15T09:19:36;9.20;;;3.00;;
73909;SDS011;62245;48.070;7.874;2024-01-15T09:22:01;9.43;;;3.30;;
73909;SDS011;62245;48.070;7.874;2024-01-15T09:24:27;8.65;;;2.85;;
73909;SDS011;62245;48.070;7.874;2024-01-15T09:26:52;12.75;;;4.07;;
73909;SDS011;62245;48.070;7.874;2024-01-15T09:29:17;10.97;;;4.00;;
73909;SDS011;62245;48.070;7.874;2024-01-15T09:31:43;12.85;;;4.43;;
73909;SDS011;62245;48.070;7.874;2024-01-15T09:34:08;12.82;;;4.47;;
73909;SDS011;62245;48.070;7.874;2024-01-15T09:36:38;13.13;;;4.30;;
73909;SDS011;62245;48.070;7.874;2024-01-15T09:39:05;13.82;;;4.63;;
73909;SDS011;62245;48.070;7.874;2024-01-15T09:41:33;14.38;;;4.50;;
73909;SDS011;62245;48.070;7.874;2024-01-15T09:43:59;14.73;;;5.97;;
73909;SDS011;62245;48.070;7.874;2024-01-15T09:46:25;15.13;;;5.83;;
73909;SDS011;62245;48.070;7.874;2024-01-15T09:48:50;15.13;;;5.85;;
73909;SDS011;62245;48.070;7.874;2024-01-15T09:51:15;18.33;;;6.20;;
73909;SDS011;62245;48.070;7.874;2024-01-15T09:53:41;17.20;;;6.33;;
73909;SDS011;62245;48.070;7.874;2024-01-15T09:56:07;16.92;;;6.00;;
73909;SDS011;62245;48.070;7.874;2024-01-15T09:58:34;16.80;;;6.03;;
73909;SDS011;62245;48.070;7.874;2024-01-15T10:00:59;17.40;;;6.35;;
73909;SDS011;62245;48.070;7.874;2024-01-15T10:03:26;17.75;;;5.90;;
73909;SDS011;62245;48.070;7.874;2024-01-15T10:05:51;18.47;;;6.73;;
73909;SDS011;62245;48.070;7.874;2024-01-15T10:08:17;18.98;;;6.03;;
73909;SDS011;62245;48.070;7.874;2024-01-15T10:10:42;19.73;;;6.18;;
73909;SDS011;62245;48.070;7.874;2024-01-15T10:13:08;19.67;;;6.57;;
73909;SDS011;62245;48.070;7.874;2024-01-15T10:15:34;16.55;;;5.80;;
73909;SDS011;62245;48.070;7.874;2024-01-15T10:18:02;21.00;;;7.28;;
73909;SDS011;62245;48.070;7.874;2024-01-15T10:20:27;19.85;;;6.75;;
73909;SDS011;62245;48.070;7.874;2024-01-15T10:22:52;18.03;;;6.57;;
73909;SDS011;62245;48.070;7.874;2024-01-15T10:25:18;18.67;;;5.73;;
73909;SDS011;62245;48.070;7.874;2024-01-15T10:27:58;17.40;;;6.57;;
73909;SDS011;62245;48.070;7.874;2024-01-15T10:32:59;17.17;;;6.47;;
73909;SDS011;62245;48.070;7.874;2024-01-15T10:35:32;18.70;;;6.53;;
73909;SDS011;62245;48.070;7.874;2024-01-15T10:38:01;17.58;;;6.57;;
73909;SDS011;62245;48.070;7.874;2024-01-15T10:40:28;18.60;;;6.22;;
73909;SDS011;62245;48.070;7.874;2024-01-15T10:42:54;19.27;;;6.85;;
73909;SDS011;62245;48.070;7.874;2024-01-15T10:45:19;18.17;;;6.43;;
73909;SDS011;62245;48.070;7.874;2024-01-15T10:47:45;17.23;;;6.65;;
73909;SDS011;62245;48.070;7.874;2024-01-15T10:50:11;23.58;;;7.35;;
73909;SDS011;62245;48.070;7.874;2024-01-15T10:52:37;18.13;;;6.55;;
73909;SDS011;62245;48.070;7.874;2024-01-15T10:55:05;20.75;;;7.20;;
73909;SDS011;62245;48.070;7.874;2024-01-15T10:57:33;22.55;;;6.85;;
73909;SDS011;62245;48.070;7.874;2024-01-15T10:59:59;20.60;;;7.03;;
73909;SDS011;62245;48.070;7.874;2024-01-15T11:02:27;18.70;;;7.28;;
73909;SDS011;62245;48.070;7.874;2024-01-15T11:04:53;19.50;;;6.95;;
73909;SDS011;62245;48.070;7.874;2024-01-15T11:07:20;20.83;;;7.57;;
73909;SDS011;62245;48.070;7.874;2024-01-15T11:09:46;18.70;;;7.03;;
73909;SDS011;62245;48.070;7.874;2024-01-15T11:12:12;20.25;;;7.22;;
73909;SDS011;62245;48.070;7.874;2024-01-15T11:14:42;23.75;;;8.38;;
73909;SDS011;62245;48.070;7.874;2024-01-15T11:17:11;19.38;;;6.93;;
73909;SDS011;62245;48.070;7.874;2024-01-15T11:22:07;18.48;;;5.75;;
73909;SDS011;62245;48.070;7.874;2024-01-15T11:24:56;19.77;;;7.38;;
73909;SDS011;62245;48.070;7.874;2024-01-15T11:27:43;20.45;;;7.32;;
73909;SDS011;62245;48.070;7.874;2024-01-15T11:30:10;19.27;;;7.72;;
73909;SDS011;62245;48.070;7.874;2024-01-15T11:32:36;18.08;;;6.93;;
73909;SDS011;62245;48.070;7.874;2024-01-15T11:35:04;21.20;;;6.75;;
73909;SDS011;62245;48.070;7.874;2024-01-15T11:40:17;21.80;;;7.82;;
73909;SDS011;62245;48.070;7.874;2024-01-15T11:42:44;16.73;;;6.30;;
73909;SDS011;62245;48.070;7.874;2024-01-15T11:45:10;21.20;;;7.28;;
73909;SDS011;62245;48.070;7.874;2024-01-15T11:48:21;19.35;;;7.10;;
73909;SDS011;62245;48.070;7.874;2024-01-15T11:50:42;17.35;;;6.45;;
73909;SDS011;62245;48.070;7.874;2024-01-15T11:53:31;19.48;;;7.03;;
73909;SDS011;62245;48.070;7.874;2024-01-15T11:55:59;19.38;;;7.03;;
73909;SDS011;62245;48.070;7.874;2024-01-15T11:58:27;19.02;;;6.60;;
73909;SDS011;62245;48.070;7.874;2024-01-15T12:00:52;16.13;;;6.13;;
73909;SDS011;62245;48.070;7.874;2024-01-15T12:03:22;19.40;;;6.90;;
73909;SDS011;62245;48.070;7.874;2024-01-15T12:05:48;20.88;;;6.95;;
73909;SDS011;62245;48.070;7.874;2024-01-15T12:08:14;18.48;;;6.57;;
73909;SDS011;62245;48.070;7.874;2024-01-15T12:10:40;16.67;;;6.53;;
73909;SDS011;62245;48.070;7.874;2024-01-15T12:15:37;15.95;;;6.35;;
73909;SDS011;62245;48.070;7.874;2024-01-15T12:18:06;14.98;;;5.88;;
73909;SDS011;62245;48.070;7.874;2024-01-15T12:20:33;16.08;;;6.15;;
73909;SDS011;62245;48.070;7.874;2024-01-15T12:22:59;16.27;;;5.88;;
73909;SDS011;62245;48.070;7.874;2024-01-15T12:25:28;18.08;;;6.03;;
73909;SDS011;62245;48.070;7.874;2024-01-15T12:27:54;17.00;;;6.20;;
73909;SDS011;62245;48.070;7.874;2024-01-15T12:30:20;15.82;;;6.03;;
73909;SDS011;62245;48.070;7.874;2024-01-15T12:32:46;15.63;;;5.93;;
73909;SDS011;62245;48.070;7.874;2024-01-15T12:35:12;16.70;;;6.35;;
73909;SDS011;62245;48.070;7.874;2024-01-15T12:37:42;14.95;;;5.10;;
73909;SDS011;62245;48.070;7.874;2024-01-15T12:40:08;14.07;;;5.72;;
73909;SDS011;62245;48.070;7.874;2024-01-15T12:42:35;17.15;;;6.05;;
73909;SDS011;62245;48.070;7.874;2024-01-15T12:45:01;18.15;;;5.70;;
73909;SDS011;62245;48.070;7.874;2024-01-15T12:47:29;18.67;;;6.40;;
73909;SDS011;62245;48.070;7.874;2024-01-15T12:49:55;15.95;;;5.90;;
73909;SDS011;62245;48.070;7.874;2024-01-15T12:52:22;15.93;;;6.05;;
73909;SDS011;62245;48.070;7.874;2024-01-15T12:54:48;15.38;;;6.57;;
73909;SDS011;62245;48.070;7.874;2024-01-15T12:57:14;16.98;;;6.57;;
73909;SDS011;62245;48.070;7.874;2024-01-15T12:59:39;16.33;;;6.43;;
73909;SDS011;62245;48.070;7.874;2024-01-15T13:02:05;16.33;;;6.03;;
73909;SDS011;62245;48.070;7.874;2024-01-15T13:04:30;13.93;;;5.60;;
73909;SDS011;62245;48.070;7.874;2024-01-15T13:06:55;18.03;;;6.17;;
73909;SDS011;62245;48.070;7.874;2024-01-15T13:09:21;18.08;;;7.15;;
73909;SDS011;62245;48.070;7.874;2024-01-15T13:11:46;18.93;;;6.73;;
73909;SDS011;62245;48.070;7.874;2024-01-15T13:14:12;19.15;;;6.60;;
73909;SDS011;62245;48.070;7.874;2024-01-15T13:16:41;16.33;;;5.90;;
73909;SDS011;62245;48.070;7.874;2024-01-15T13:19:07;15.45;;;6.22;;
73909;SDS011;62245;48.070;7.874;2024-01-15T13:21:36;18.92;;;6.63;;
73909;SDS011;62245;48.070;7.874;2024-01-15T13:24:08;16.75;;;6.65;;
73909;SDS011;62245;48.070;7.874;2024-01-15T13:26:34;17.75;;;6.75;;
73909;SDS011;62245;48.070;7.874;2024-01-15T13:29:00;19.42;;;7.07;;
73909;SDS011;62245;48.070;7.874;2024-01-15T13:31:26;17.23;;;6.07;;
73909;SDS011;62245;48.070;7.874;2024-01-15T13:33:52;18.88;;;7.20;;
73909;SDS011;62245;48.070;7.874;2024-01-15T13:36:17;16.97;;;5.93;;
73909;SDS011;62245;48.070;7.874;2024-01-15T13:38:43;17.10;;;6.53;;
73909;SDS011;62245;48.070;7.874;2024-01-15T13:41:08;18.90;;;6.63;;
73909;SDS011;62245;48.070;7.874;2024-01-15T13:43:34;15.98;;;6.57;;
73909;SDS011;62245;48.070;7.874;2024-01-15T13:45:59;16.13;;;6.00;;
73909;SDS011;62245;48.070;7.874;2024-01-15T13:48:25;14.45;;;6.07;;
73909;SDS011;62245;48.070;7.874;2024-01-15T13:50:51;15.13;;;5.55;;
73909;SDS011;62245;48.070;7.874;2024-01-15T13:53:17;15.88;;;6.63;;
73909;SDS011;62245;48.070;7.874;2024-01-15T13:55:44;12.88;;;5.45;;
73909;SDS011;62245;48.070;7.874;2024-01-15T13:58:09;17.25;;;6.65;;
73909;SDS011;62245;48.070;7.874;2024-01-15T14:00:34;19.15;;;6.85;;
73909;SDS011;62245;48.070;7.874;2024-01-15T14:03:00;16.80;;;6.13;;
73909;SDS011;62245;48.070;7.874;2024-01-15T14:05:25;17.70;;;6.70;;
73909;SDS011;62245;48.070;7.874;2024-01-15T14:07:51;18.58;;;6.07;;
73909;SDS011;62245;48.070;7.874;2024-01-15T14:10:16;17.03;;;6.43;;
73909;SDS011;62245;48.070;7.874;2024-01-15T14:12:41;16.00;;;7.27;;
73909;SDS011;62245;48.070;7.874;2024-01-15T14:15:07;19.33;;;6.83;;
73909;SDS011;62245;48.070;7.874;2024-01-15T14:17:33;15.68;;;6.50;;
73909;SDS011;62245;48.070;7.874;2024-01-15T14:19:58;14.77;;;6.37;;
73909;SDS011;62245;48.070;7.874;2024-01-15T14:22:24;17.48;;;6.07;;
73909;SDS011;62245;48.070;7.874;2024-01-15T14:24:49;15.82;;;6.40;;
73909;SDS011;62245;48.070;7.874;2024-01-15T14:27:15;15.65;;;6.20;;
73909;SDS011;62245;48.070;7.874;2024-01-15T14:29:41;18.47;;;6.70;;
73909;SDS011;62245;48.070;7.874;2024-01-15T14:32:06;19.60;;;6.70;;
73909;SDS011;62245;48.070;7.874;2024-01-15T14:34:31;16.60;;;7.33;;
73909;SDS011;62245;48.070;7.874;2024-01-15T14:36:57;17.57;;;6.67;;
73909;SDS011;62245;48.070;7.874;2024-01-15T14:39:22;15.53;;;6.33;;
73909;SDS011;62245;48.070;7.874;2024-01-15T14:41:48;20.52;;;7.07;;
73909;SDS011;62245;48.070;7.874;2024-01-15T14:44:13;17.42;;;7.53;;
73909;SDS011;62245;48.070;7.874;2024-01-15T14:46:39;19.17;;;7.47;;
73909;SDS011;62245;48.070;7.874;2024-01-15T14:49:05;18.55;;;7.18;;
73909;SDS011;62245;48.070;7.874;2024-01-15T14:51:30;18.50;;;6.53;;
73909;SDS011;62245;48.070;7.874;2024-01-15T14:53:55;21.92;;;8.18;;
73909;SDS011;62245;48.070;7.874;2024-01-15T14:56:21;23.30;;;8.23;;
73909;SDS011;62245;48.070;7.874;2024-01-15T14:58:46;20.47;;;8.03;;
73909;SDS011;62245;48.070;7.874;2024-01-15T15:01:14;21.35;;;8.40;;
73909;SDS011;62245;48.070;7.874;2024-01-15T15:03:40;20.40;;;8.65;;
73909;SDS011;62245;48.070;7.874;2024-01-15T15:06:05;21.20;;;8.07;;
73909;SDS011;62245;48.070;7.874;2024-01-15T15:08:34;24.55;;;8.60;;
73909;SDS011;62245;48.070;7.874;2024-01-15T15:11:00;22.52;;;8.32;;
73909;SDS011;62245;48.070;7.874;2024-01-15T15:13:26;19.25;;;8.15;;
73909;SDS011;62245;48.070;7.874;2024-01-15T15:15:52;20.23;;;8.00;;
73909;SDS011;62245;48.070;7.874;2024-01-15T15:18:19;22.55;;;8.93;;
73909;SDS011;62245;48.070;7.874;2024-01-15T15:20:46;22.27;;;8.25;;
73909;SDS011;62245;48.070;7.874;2024-01-15T15:23:11;23.38;;;9.52;;
73909;SDS011;62245;48.070;7.874;2024-01-15T15:25:37;27.60;;;11.40;;
73909;SDS011;62245;48.070;7.874;2024-01-15T15:28:02;25.77;;;10.57;;
73909;SDS011;62245;48.070;7.874;2024-01-15T15:30:29;25.67;;;10.00;;
73909;SDS011;62245;48.070;7.874;2024-01-15T15:32:55;26.67;;;11.88;;
73909;SDS011;62245;48.070;7.874;2024-01-15T15:35:20;25.30;;;9.50;;
73909;SDS011;62245;48.070;7.874;2024-01-15T15:37:46;24.88;;;10.05;;
73909;SDS011;62245;48.070;7.874;2024-01-15T15:40:11;22.03;;;9.63;;
73909;SDS011;62245;48.070;7.874;2024-01-15T15:42:38;24.20;;;9.40;;
73909;SDS011;62245;48.070;7.874;2024-01-15T15:45:03;29.67;;;12.05;;
73909;SDS011;62245;48.070;7.874;2024-01-15T15:47:29;30.73;;;10.82;;
73909;SDS011;62245;48.070;7.874;2024-01-15T15:49:54;38.40;;;14.27;;
73909;SDS011;62245;48.070;7.874;2024-01-15T15:52:20;34.00;;;12.43;;
73909;SDS011;62245;48.070;7.874;2024-01-15T15:54:45;31.93;;;11.87;;
73909;SDS011;62245;48.070;7.874;2024-01-15T15:57:10;28.80;;;10.90;;
73909;SDS011;62245;48.070;7.874;2024-01-15T15:59:36;31.40;;;11.70;;
73909;SDS011;62245;48.070;7.874;2024-01-15T16:02:01;31.60;;;11.77;;
73909;SDS011;62245;48.070;7.874;2024-01-15T16:04:26;29.95;;;11.05;;
73909;SDS011;62245;48.070;7.874;2024-01-15T16:06:52;25.87;;;9.67;;
73909;SDS011;62245;48.070;7.874;2024-01-15T16:09:18;26.42;;;10.82;;
73909;SDS011;62245;48.070;7.874;2024-01-15T16:11:43;25.60;;;10.23;;
73909;SDS011;62245;48.070;7.874;2024-01-15T16:14:09;28.77;;;11.00;;
73909;SDS011;62245;48.070;7.874;2024-01-15T16:16:34;25.95;;;10.13;;
73909;SDS011;62245;48.070;7.874;2024-01-15T16:19:00;22.35;;;8.93;;
73909;SDS011;62245;48.070;7.874;2024-01-15T16:21:25;24.47;;;10.00;;
73909;SDS011;62245;48.070;7.874;2024-01-15T16:23:53;23.40;;;9.70;;
73909;SDS011;62245;48.070;7.874;2024-01-15T16:26:19;25.35;;;10.32;;
73909;SDS011;62245;48.070;7.874;2024-01-15T16:28:44;27.33;;;10.10;;
73909;SDS011;62245;48.070;7.874;2024-01-15T16:31:09;26.80;;;10.25;;
73909;SDS011;62245;48.070;7.874;2024-01-15T16:33:38;25.77;;;9.60;;
73909;SDS011;62245;48.070;7.874;2024-01-15T16:36:03;24.00;;;9.57;;
73909;SDS011;62245;48.070;7.874;2024-01-15T16:38:28;23.52;;;10.48;;
73909;SDS011;62245;48.070;7.874;2024-01-15T16:40:54;23.80;;;9.87;;
73909;SDS011;62245;48.070;7.874;2024-01-15T16:43:21;29.38;;;10.70;;
73909;SDS011;62245;48.070;7.874;2024-01-15T16:45:47;25.33;;;9.32;;
73909;SDS011;62245;48.070;7.874;2024-01-15T16:48:12;27.75;;;10.85;;
73909;SDS011;62245;48.070;7.874;2024-01-15T16:50:37;26.10;;;11.13;;
73909;SDS011;62245;48.070;7.874;2024-01-15T16:53:03;31.03;;;11.50;;
73909;SDS011;62245;48.070;7.874;2024-01-15T16:55:28;30.95;;;12.23;;
73909;SDS011;62245;48.070;7.874;2024-01-15T16:57:53;31.53;;;11.40;;
73909;SDS011;62245;48.070;7.874;2024-01-15T17:00:19;31.37;;;11.47;;
73909;SDS011;62245;48.070;7.874;2024-01-15T17:02:44;38.70;;;14.60;;
73909;SDS011;62245;48.070;7.874;2024-01-15T17:05:09;31.10;;;11.33;;
73909;SDS011;62245;48.070;7.874;2024-01-15T17:07:35;28.92;;;11.32;;
73909;SDS011;62245;48.070;7.874;2024-01-15T17:10:00;28.93;;;11.10;;
73909;SDS011;62245;48.070;7.874;2024-01-15T17:12:27;27.40;;;11.05;;
73909;SDS011;62245;48.070;7.874;2024-01-15T17:14:52;25.00;;;10.10;;
73909;SDS011;62245;48.070;7.874;2024-01-15T17:17:17;26.23;;;10.13;;
73909;SDS011;62245;48.070;7.874;2024-01-15T17:19:44;24.70;;;10.00;;
73909;SDS011;62245;48.070;7.874;2024-01-15T17:22:09;27.13;;;10.57;;
73909;SDS011;62245;48.070;7.874;2024-01-15T17:24:34;26.83;;;10.23;;
73909;SDS011;62245;48.070;7.874;2024-01-15T17:27:03;23.63;;;9.95;;
73909;SDS011;62245;48.070;7.874;2024-01-15T17:29:28;37.33;;;13.75;;
73909;SDS011;62245;48.070;7.874;2024-01-15T17:31:54;41.67;;;16.67;;